createdAt,value
2023-05-25T00:02:24.755Z,19.55
2023-05-25T00:04:52.190Z,19.43
2023-05-25T00:07:19.126Z,19.29
2023-05-25T00:09:46.649Z,19.26
2023-05-25T00:12:14.378Z,19.31
2023-05-25T00:14:41.004Z,19.27
2023-05-25T00:17:10.216Z,19.19
2023-05-25T00:19:38.094Z,19.21
2023-05-25T00:22:05.121Z,19.04
2023-05-25T00:24:31.944Z,19.13
2023-05-25T00:26:58.901Z,19.11
2023-05-25T00:29:26.186Z,19.07
2023-05-25T00:31:53.749Z,19.07
2023-05-25T00:34:20.890Z,19.09
2023-05-25T00:36:50.628Z,19.00
2023-05-25T00:39:19.282Z,19.05
2023-05-25T00:41:46.899Z,19.08
2023-05-25T00:44:14.962Z,19.11
2023-05-25T00:46:52.597Z,19.19
2023-05-25T00:49:23.092Z,19.14
2023-05-25T00:51:52.411Z,19.16
2023-05-25T00:54:19.647Z,19.14
2023-05-25T00:57:14.681Z,19.18
2023-05-25T00:59:48.433Z,19.30
2023-05-25T01:02:19.240Z,19.37
2023-05-25T01:04:52.733Z,19.33
2023-05-25T01:07:23.492Z,19.44
2023-05-25T01:10:06.991Z,19.37
2023-05-25T01:12:45.937Z,19.36
2023-05-25T01:15:12.697Z,19.31
2023-05-25T01:17:39.548Z,19.25
2023-05-25T01:20:11.386Z,19.34
2023-05-25T01:22:54.205Z,19.39
2023-05-25T01:25:27.663Z,19.47
2023-05-25T01:27:54.194Z,19.40
2023-05-25T01:30:25.334Z,19.42
2023-05-25T01:32:54.103Z,19.41
2023-05-25T01:35:22.065Z,19.45
2023-05-25T01:37:49.979Z,19.55
2023-05-25T01:40:16.665Z,19.52
2023-05-25T01:42:43.630Z,19.55
2023-05-25T01:45:12.746Z,19.53
2023-05-25T01:48:03.538Z,19.51
2023-05-25T01:50:30.145Z,19.48
2023-05-25T01:53:04.819Z,19.57
2023-05-25T01:55:36.892Z,19.69
2023-05-25T01:58:06.099Z,19.70
2023-05-25T02:00:33.354Z,19.64
2023-05-25T02:03:01.506Z,19.70
2023-05-25T02:05:28.306Z,19.74
2023-05-25T02:07:54.987Z,19.74
2023-05-25T02:10:21.652Z,19.76
2023-05-25T02:12:48.220Z,19.78
2023-05-25T02:15:16.143Z,19.81
2023-05-25T02:17:43.343Z,19.75
2023-05-25T02:20:11.759Z,19.71
2023-05-25T02:22:38.402Z,19.64
2023-05-25T02:25:05.810Z,19.58
2023-05-25T02:27:32.461Z,19.55
2023-05-25T02:29:59.015Z,19.42
2023-05-25T02:32:25.624Z,19.33
2023-05-25T02:34:52.285Z,19.29
2023-05-25T02:37:18.874Z,19.25
2023-05-25T02:39:45.412Z,19.23
2023-05-25T02:42:12.288Z,19.13
2023-05-25T02:44:38.831Z,19.06
2023-05-25T02:47:06.845Z,19.07
2023-05-25T02:49:34.445Z,19.08
2023-05-25T02:52:01.064Z,19.04
2023-05-25T02:54:27.639Z,18.97
2023-05-25T02:56:54.238Z,18.94
2023-05-25T02:59:21.609Z,18.89
2023-05-25T03:01:48.253Z,18.85
2023-05-25T03:04:14.932Z,18.81
2023-05-25T03:06:41.747Z,18.77
2023-05-25T03:09:09.687Z,18.87
2023-05-25T03:11:36.337Z,18.81
2023-05-25T03:14:03.011Z,18.75
2023-05-25T03:16:29.614Z,18.68
2023-05-25T03:18:56.226Z,18.65
2023-05-25T03:21:23.715Z,18.61
2023-05-25T03:23:50.278Z,18.64
2023-05-25T03:26:17.601Z,18.69
2023-05-25T03:28:44.312Z,18.67
2023-05-25T03:31:12.189Z,18.63
2023-05-25T03:33:38.802Z,18.71
2023-05-25T03:36:09.387Z,18.72
2023-05-25T03:38:38.818Z,18.79
2023-05-25T03:41:05.623Z,18.85
2023-05-25T03:43:32.284Z,18.89
2023-05-25T03:45:58.929Z,18.92
2023-05-25T03:48:25.874Z,18.99
2023-05-25T03:50:52.696Z,19.13
2023-05-25T03:53:19.306Z,19.14
2023-05-25T03:55:46.071Z,19.20
2023-05-25T03:58:13.375Z,19.27
2023-05-25T04:00:39.959Z,19.29
2023-05-25T04:03:07.037Z,19.32
2023-05-25T04:05:33.789Z,19.33
2023-05-25T04:08:00.362Z,19.38
2023-05-25T04:10:26.976Z,19.41
2023-05-25T04:12:56.658Z,19.47
2023-05-25T04:15:26.630Z,19.57
2023-05-25T04:17:53.360Z,19.56
2023-05-25T04:20:20.052Z,19.50
2023-05-25T04:22:47.663Z,19.50
2023-05-25T04:25:14.429Z,19.53
2023-05-25T04:27:42.275Z,19.57
2023-05-25T04:30:11.121Z,19.60
2023-05-25T04:32:38.578Z,19.65
2023-05-25T04:35:05.695Z,19.59
2023-05-25T04:37:33.365Z,19.59
2023-05-25T04:40:00.120Z,19.64
2023-05-25T04:42:26.969Z,19.63
2023-05-25T04:44:55.690Z,19.75
2023-05-25T04:47:24.954Z,19.84
2023-05-25T04:49:51.997Z,19.87
2023-05-25T04:52:18.663Z,19.89
2023-05-25T04:54:46.899Z,19.95
2023-05-25T04:57:13.576Z,20.03
2023-05-25T04:59:40.231Z,20.04
2023-05-25T05:02:06.857Z,20.11
2023-05-25T05:04:33.456Z,20.18
2023-05-25T05:07:00.145Z,20.25
2023-05-25T05:09:26.731Z,20.25
2023-05-25T05:11:53.338Z,20.28
2023-05-25T05:14:19.893Z,20.39
2023-05-25T05:16:48.148Z,20.46
2023-05-25T05:19:14.893Z,20.56
2023-05-25T05:21:41.497Z,20.66
2023-05-25T05:24:08.094Z,20.65
2023-05-25T05:26:48.258Z,20.73
2023-05-25T05:29:21.482Z,20.86
2023-05-25T05:31:48.259Z,20.96
2023-05-25T05:34:14.879Z,20.91
2023-05-25T05:36:56.034Z,21.01
2023-05-25T05:39:24.256Z,21.03
2023-05-25T05:41:50.844Z,21.29
2023-05-25T05:44:17.433Z,21.30
2023-05-25T05:46:44.215Z,21.35
2023-05-25T05:49:10.847Z,21.47
2023-05-25T05:51:37.400Z,21.57
2023-05-25T05:54:04.564Z,21.55
2023-05-25T05:56:31.398Z,21.65
2023-05-25T05:58:58.107Z,21.77
2023-05-25T06:01:25.448Z,21.83
2023-05-25T06:03:54.341Z,21.65
2023-05-25T06:06:21.716Z,21.88
2023-05-25T06:08:48.629Z,21.92
2023-05-25T06:11:15.380Z,21.81
2023-05-25T06:13:42.029Z,21.91
2023-05-25T06:16:08.661Z,22.02
2023-05-25T06:18:35.320Z,22.13
2023-05-25T06:21:02.502Z,22.31
2023-05-25T06:23:29.055Z,22.54
2023-05-25T06:25:55.721Z,22.73
2023-05-25T06:28:22.292Z,22.78
2023-05-25T06:30:49.212Z,22.80
2023-05-25T06:33:16.236Z,22.93
2023-05-25T06:35:43.158Z,22.93
2023-05-25T06:38:11.530Z,23.00
2023-05-25T06:40:38.277Z,22.84
2023-05-25T06:43:04.877Z,22.76
2023-05-25T06:45:31.501Z,22.73
2023-05-25T06:47:58.139Z,22.67
2023-05-25T06:50:24.872Z,22.61
2023-05-25T06:52:51.592Z,22.53
2023-05-25T06:55:18.189Z,22.49
2023-05-25T06:57:44.824Z,22.42
2023-05-25T07:00:12.400Z,22.37
2023-05-25T07:02:39.556Z,22.40
2023-05-25T07:05:06.785Z,22.39
2023-05-25T07:07:33.764Z,22.37
2023-05-25T07:10:01.707Z,22.34
2023-05-25T07:12:28.317Z,22.27
2023-05-25T07:14:54.977Z,22.04
2023-05-25T07:17:22.331Z,22.05
2023-05-25T07:19:50.079Z,22.19
2023-05-25T07:22:19.006Z,22.23
2023-05-25T07:24:46.916Z,22.31
2023-05-25T07:27:14.335Z,22.23
2023-05-25T07:29:41.252Z,22.43
2023-05-25T07:32:07.948Z,22.35
2023-05-25T07:34:35.262Z,22.33
2023-05-25T07:37:01.896Z,22.45
2023-05-25T07:39:28.679Z,22.65
2023-05-25T07:41:55.359Z,22.87
2023-05-25T07:44:21.926Z,22.99
2023-05-25T07:46:48.540Z,23.08
2023-05-25T07:49:17.644Z,23.13
2023-05-25T07:51:47.539Z,23.09
2023-05-25T07:54:14.157Z,23.14
2023-05-25T07:56:40.944Z,23.35
2023-05-25T07:59:07.581Z,23.57
2023-05-25T08:01:34.191Z,23.55
2023-05-25T08:04:01.319Z,23.42
2023-05-25T08:06:28.046Z,23.35
2023-05-25T08:08:54.607Z,23.65
2023-05-25T08:11:27.690Z,23.63
2023-05-25T08:13:54.353Z,23.62
2023-05-25T08:16:21.260Z,23.62
2023-05-25T08:18:47.977Z,23.73
2023-05-25T08:21:14.582Z,23.87
2023-05-25T08:23:42.423Z,23.82
2023-05-25T08:26:26.092Z,23.77
2023-05-25T08:28:57.024Z,23.81
2023-05-25T08:31:23.655Z,23.90
2023-05-25T08:33:50.258Z,24.07
2023-05-25T08:36:16.815Z,24.20
2023-05-25T08:38:43.352Z,24.32
2023-05-25T08:41:12.847Z,24.33
2023-05-25T08:43:41.574Z,24.27
2023-05-25T08:46:09.189Z,24.47
2023-05-25T08:48:41.731Z,24.64
2023-05-25T08:51:11.944Z,24.84
2023-05-25T08:53:43.907Z,25.00
2023-05-25T08:56:16.092Z,24.71
2023-05-25T08:58:53.042Z,24.59
2023-05-25T09:01:22.584Z,24.42
2023-05-25T09:03:50.330Z,24.49
2023-05-25T09:06:17.695Z,24.35
2023-05-25T09:08:45.116Z,24.41
2023-05-25T09:11:16.573Z,24.45
2023-05-25T09:13:44.393Z,24.73
2023-05-25T09:16:11.592Z,24.93
2023-05-25T09:18:38.611Z,24.94
2023-05-25T09:21:05.364Z,25.14
2023-05-25T09:23:32.339Z,25.29
2023-05-25T09:26:01.199Z,25.26
2023-05-25T09:28:27.983Z,25.42
2023-05-25T09:30:56.096Z,25.54
2023-05-25T09:33:22.905Z,25.60
2023-05-25T09:35:49.840Z,25.87
2023-05-25T09:38:17.146Z,26.02
2023-05-25T09:40:44.827Z,26.03
2023-05-25T09:43:17.285Z,25.89
2023-05-25T09:45:49.028Z,25.95
2023-05-25T09:48:15.915Z,25.78
2023-05-25T09:50:43.381Z,25.79
2023-05-25T09:53:11.237Z,25.86
2023-05-25T09:55:51.968Z,25.90
2023-05-25T09:58:24.143Z,25.81
2023-05-25T10:00:55.530Z,25.57
2023-05-25T10:03:22.720Z,25.31
2023-05-25T10:05:49.892Z,25.40
2023-05-25T10:08:20.221Z,25.46
2023-05-25T10:10:50.023Z,25.51
2023-05-25T10:13:22.881Z,25.48
2023-05-25T10:15:54.182Z,25.57
2023-05-25T10:18:26.444Z,25.68
2023-05-25T10:21:04.757Z,25.77
2023-05-25T10:23:41.747Z,25.89
2023-05-25T10:26:09.952Z,25.82
2023-05-25T10:28:38.019Z,25.73
2023-05-25T10:31:05.862Z,25.69
2023-05-25T10:33:33.634Z,25.37
2023-05-25T10:36:10.157Z,25.31
2023-05-25T10:38:40.126Z,25.45
2023-05-25T10:41:09.989Z,25.40
2023-05-25T10:43:38.139Z,25.40
2023-05-25T10:46:06.321Z,25.45
2023-05-25T10:48:40.000Z,25.38
2023-05-25T10:51:08.319Z,25.60
2023-05-25T10:53:35.900Z,25.59
2023-05-25T10:56:04.592Z,25.60
2023-05-25T10:58:32.422Z,25.41
2023-05-25T11:01:13.618Z,25.52
2023-05-25T11:04:18.735Z,25.54
2023-05-25T11:06:48.245Z,25.62
2023-05-25T11:09:28.254Z,25.81
2023-05-25T11:12:03.461Z,25.86
2023-05-25T11:14:31.705Z,26.13
2023-05-25T11:17:11.924Z,26.37
2023-05-25T11:19:51.389Z,26.49
2023-05-25T11:22:21.248Z,26.65
2023-05-25T11:24:49.390Z,26.77
2023-05-25T11:27:21.833Z,26.97
2023-05-25T11:29:51.740Z,27.08
2023-05-25T11:32:18.603Z,26.90
2023-05-25T11:34:47.087Z,26.71
2023-05-25T11:37:21.150Z,26.77
2023-05-25T11:39:52.102Z,27.05
2023-05-25T11:42:24.345Z,27.13
2023-05-25T11:44:51.338Z,27.09
2023-05-25T11:47:23.004Z,26.76
2023-05-25T11:49:50.048Z,26.75
2023-05-25T11:52:18.171Z,26.81
2023-05-25T11:54:45.885Z,26.64
2023-05-25T11:57:16.930Z,26.61
2023-05-25T11:59:49.954Z,26.80
2023-05-25T12:02:17.143Z,26.77
2023-05-25T12:05:02.309Z,26.74
2023-05-25T12:07:30.625Z,26.71
2023-05-25T12:10:10.365Z,26.72
2023-05-25T12:12:51.746Z,26.83
2023-05-25T12:15:33.955Z,26.87
2023-05-25T12:18:01.133Z,27.02
2023-05-25T12:20:27.945Z,27.00
2023-05-25T12:22:54.660Z,26.70
2023-05-25T12:25:46.609Z,26.91
2023-05-25T14:00:24.368Z,26.59
2023-05-25T14:02:51.130Z,26.71
2023-05-25T14:05:19.770Z,26.78
2023-05-25T14:07:47.218Z,26.80
2023-05-25T14:10:14.009Z,26.74
2023-05-25T14:12:41.042Z,26.71
2023-05-25T14:15:38.718Z,26.57
2023-05-25T14:18:42.449Z,26.56
2023-05-25T14:21:11.079Z,26.52
2023-05-25T14:23:37.633Z,26.42
2023-05-25T14:26:04.591Z,26.59
2023-05-25T14:28:31.222Z,26.58
2023-05-25T14:30:57.878Z,26.63
2023-05-25T14:33:24.467Z,26.68
2023-05-25T14:35:51.086Z,26.68
2023-05-25T14:38:17.649Z,26.74
2023-05-25T14:41:00.140Z,26.76
2023-05-25T14:43:26.778Z,26.73
2023-05-25T14:45:53.308Z,26.78
2023-05-25T14:48:23.354Z,26.77
2023-05-25T14:50:50.009Z,26.77
2023-05-25T14:53:16.770Z,26.86
2023-05-25T14:55:43.817Z,26.78
2023-05-25T14:58:11.263Z,26.87
2023-05-25T15:00:37.896Z,26.86
2023-05-25T15:03:04.738Z,26.90
2023-05-25T15:05:31.389Z,26.79
2023-05-25T15:07:58.970Z,26.77
2023-05-25T15:10:25.655Z,26.70
2023-05-25T15:12:52.287Z,26.61
2023-05-25T15:15:18.835Z,26.54
2023-05-25T15:17:45.458Z,26.63
2023-05-25T15:20:12.042Z,26.54
2023-05-25T15:22:38.629Z,26.61
2023-05-25T15:25:05.437Z,26.65
2023-05-25T15:27:32.288Z,26.50
2023-05-25T15:29:58.956Z,26.41
2023-05-25T15:32:25.974Z,26.39
2023-05-25T15:34:52.627Z,26.29
2023-05-25T15:37:19.269Z,26.43
2023-05-25T15:39:45.828Z,26.53
2023-05-25T15:42:12.557Z,26.53
2023-05-25T15:44:39.110Z,26.39
2023-05-25T15:47:06.614Z,26.32
2023-05-25T15:49:36.695Z,26.32
2023-05-25T15:52:03.448Z,26.38
2023-05-25T15:54:30.026Z,26.41
2023-05-25T15:56:56.592Z,26.42
2023-05-25T15:59:23.151Z,26.30
2023-05-25T16:01:49.847Z,26.29
2023-05-25T16:04:16.633Z,26.29
2023-05-25T16:06:43.312Z,26.24
2023-05-25T16:09:09.865Z,26.28
2023-05-25T16:11:36.556Z,26.11
2023-05-25T16:14:03.170Z,26.37
2023-05-25T16:16:29.874Z,26.28
2023-05-25T16:18:56.497Z,26.26
2023-05-25T16:21:23.172Z,26.05
2023-05-25T16:23:49.913Z,26.21
2023-05-25T16:26:16.600Z,26.17
2023-05-25T16:28:43.186Z,26.18
2023-05-25T16:31:11.089Z,26.09
2023-05-25T16:33:39.119Z,26.09
2023-05-25T16:36:06.064Z,26.13
2023-05-25T16:38:32.649Z,26.18
2023-05-25T16:40:59.206Z,26.22
2023-05-25T16:43:26.801Z,26.01
2023-05-25T16:45:53.437Z,26.06
2023-05-25T16:48:22.426Z,25.95
2023-05-25T16:50:49.773Z,26.07
2023-05-25T16:53:16.306Z,26.10
2023-05-25T16:55:43.655Z,26.04
2023-05-25T16:58:10.454Z,26.01
2023-05-25T17:00:37.054Z,26.09
2023-05-25T17:03:03.751Z,26.01
2023-05-25T17:05:30.630Z,25.94
2023-05-25T17:07:57.224Z,25.92
2023-05-25T17:10:23.842Z,26.01
2023-05-25T17:12:50.597Z,25.81
2023-05-25T17:15:17.304Z,25.84
2023-05-25T17:17:44.164Z,25.74
2023-05-25T17:20:11.641Z,25.74
2023-05-25T17:22:38.579Z,25.74
2023-05-25T17:25:06.326Z,25.51
2023-05-25T17:27:32.921Z,25.48
2023-05-25T17:29:59.514Z,25.43
2023-05-25T17:32:26.334Z,25.37
2023-05-25T17:34:53.074Z,25.46
2023-05-25T17:37:21.123Z,25.36
2023-05-25T17:39:47.884Z,25.31
2023-05-25T17:42:14.538Z,25.36
2023-05-25T17:44:42.418Z,25.22
2023-05-25T17:47:10.977Z,25.29
2023-05-25T17:49:38.082Z,25.23
2023-05-25T17:52:04.981Z,25.12
2023-05-25T17:54:31.526Z,25.09
2023-05-25T17:56:58.131Z,25.11
2023-05-25T17:59:24.695Z,25.09
2023-05-25T18:01:51.864Z,24.92
2023-05-25T18:04:19.714Z,24.71
2023-05-25T18:06:47.349Z,24.72
2023-05-25T18:09:14.060Z,24.78
2023-05-25T18:11:43.001Z,24.78
2023-05-25T18:14:09.560Z,24.62
2023-05-25T18:16:44.509Z,24.63
2023-05-25T18:19:11.347Z,24.63
2023-05-25T18:21:38.548Z,24.53
2023-05-25T18:24:07.395Z,24.42
2023-05-25T18:26:34.070Z,24.38
2023-05-25T18:29:00.766Z,24.39
2023-05-25T18:31:30.637Z,24.42
2023-05-25T18:33:57.285Z,24.21
2023-05-25T18:36:23.966Z,24.07
2023-05-25T18:38:50.546Z,24.07
2023-05-25T18:41:19.166Z,23.99
2023-05-25T18:43:49.989Z,24.04
2023-05-25T18:46:16.920Z,24.03
2023-05-25T18:48:43.619Z,24.02
2023-05-25T18:51:10.493Z,24.05
2023-05-25T18:53:37.161Z,24.01
2023-05-25T18:56:03.735Z,23.87
2023-05-25T18:58:35.499Z,23.80
2023-05-25T19:01:02.133Z,23.75
2023-05-25T19:03:28.797Z,23.64
2023-05-25T19:05:55.468Z,23.53
2023-05-25T19:08:23.506Z,23.61
2023-05-25T19:10:51.030Z,23.60
2023-05-25T19:13:17.654Z,23.52
2023-05-25T19:15:44.558Z,23.59
2023-05-25T19:18:11.524Z,23.62
2023-05-25T19:20:38.376Z,23.50
2023-05-25T19:23:04.977Z,23.54
2023-05-25T19:25:31.635Z,23.40
2023-05-25T19:27:59.635Z,23.35
2023-05-25T19:30:26.269Z,23.43
2023-05-25T19:32:52.876Z,23.32
2023-05-25T19:35:19.561Z,23.26
2023-05-25T19:37:46.312Z,23.30
2023-05-25T19:40:13.574Z,23.35
2023-05-25T19:42:40.193Z,23.34
2023-05-25T19:45:07.101Z,23.22
2023-05-25T19:47:33.855Z,23.16
2023-05-25T19:50:02.150Z,23.13
2023-05-25T19:52:28.744Z,23.19
2023-05-25T19:54:57.181Z,23.05
2023-05-25T19:57:23.876Z,22.88
2023-05-25T19:59:51.113Z,22.89
2023-05-25T20:02:17.704Z,22.91
2023-05-25T20:04:47.280Z,22.91
2023-05-25T20:07:14.194Z,22.85
2023-05-25T20:09:41.439Z,22.89
2023-05-25T20:12:09.441Z,22.78
2023-05-25T20:14:36.013Z,22.76
2023-05-25T20:17:02.745Z,22.51
2023-05-25T20:19:29.767Z,22.47
2023-05-25T20:22:11.448Z,22.43
2023-05-25T20:24:38.114Z,22.53
2023-05-25T20:27:06.075Z,22.50
2023-05-25T20:29:33.654Z,22.46
2023-05-25T20:32:00.739Z,22.48
2023-05-25T20:34:27.372Z,22.29
2023-05-25T20:36:53.974Z,22.37
2023-05-25T20:39:20.581Z,22.40
2023-05-25T20:41:47.155Z,22.41
2023-05-25T20:44:14.122Z,22.34
2023-05-25T20:46:40.838Z,22.32
2023-05-25T20:49:07.450Z,22.32
2023-05-25T20:51:33.975Z,22.34
2023-05-25T20:54:00.833Z,22.27
2023-05-25T20:56:27.710Z,22.19
2023-05-25T20:58:54.376Z,22.25
2023-05-25T21:01:20.955Z,22.26
2023-05-25T21:03:47.824Z,22.21
2023-05-25T21:06:14.537Z,22.20
2023-05-25T21:08:41.145Z,22.22
2023-05-25T21:11:07.736Z,22.23
2023-05-25T21:13:34.336Z,22.11
2023-05-25T21:16:01.247Z,22.10
2023-05-25T21:18:27.817Z,22.14
2023-05-25T21:20:54.745Z,22.08
2023-05-25T21:23:21.361Z,21.99
2023-05-25T21:25:48.168Z,21.98
2023-05-25T21:28:15.150Z,21.90
2023-05-25T21:30:41.707Z,22.06
2023-05-25T21:33:08.500Z,22.06
2023-05-25T21:35:35.211Z,21.94
2023-05-25T21:38:01.802Z,22.02
2023-05-25T21:40:28.663Z,21.96
2023-05-25T21:42:55.323Z,22.10
2023-05-25T21:45:21.886Z,22.14
2023-05-25T21:47:48.626Z,22.18
2023-05-25T21:50:15.419Z,22.18
2023-05-25T21:52:42.174Z,22.16
2023-05-25T21:55:09.168Z,22.05
2023-05-25T21:57:36.303Z,22.10
2023-05-25T22:00:03.789Z,22.07
2023-05-25T22:02:30.604Z,22.02
2023-05-25T22:04:57.331Z,21.98
2023-05-25T22:07:23.941Z,21.93
2023-05-25T22:09:50.649Z,21.92
2023-05-25T22:12:17.257Z,21.91
2023-05-25T22:14:43.808Z,21.85
2023-05-25T22:17:10.509Z,21.84
2023-05-25T22:19:37.148Z,21.82
2023-05-25T22:22:03.864Z,21.79
2023-05-25T22:24:30.521Z,21.80
2023-05-25T22:26:57.061Z,21.68
2023-05-25T22:29:23.663Z,21.68
2023-05-25T22:31:50.734Z,21.62
2023-05-25T22:34:17.402Z,21.60
2023-05-25T22:36:44.009Z,21.58
2023-05-25T22:39:10.746Z,21.57
2023-05-25T22:41:37.360Z,21.54
2023-05-25T22:44:03.987Z,21.53
2023-05-25T22:46:30.683Z,21.46
2023-05-25T22:48:57.294Z,21.43
2023-05-25T22:51:23.859Z,21.40
2023-05-25T22:53:50.446Z,21.35
2023-05-25T22:56:17.059Z,21.34
2023-05-25T22:58:43.668Z,21.28
2023-05-25T23:01:10.365Z,21.37
2023-05-25T23:03:37.071Z,21.23
2023-05-25T23:06:03.776Z,21.16
2023-05-25T23:08:30.538Z,21.11
2023-05-25T23:10:57.120Z,21.12
2023-05-25T23:13:24.281Z,21.08
2023-05-25T23:15:51.019Z,21.05
2023-05-25T23:18:17.674Z,21.02
2023-05-25T23:20:44.965Z,21.00
2023-05-25T23:23:11.951Z,21.04
2023-05-25T23:25:38.556Z,21.00
2023-05-25T23:28:05.161Z,20.98
2023-05-25T23:30:31.734Z,20.92
2023-05-25T23:32:58.388Z,20.91
2023-05-25T23:35:25.085Z,20.81
2023-05-25T23:37:52.152Z,20.68
2023-05-25T23:40:18.980Z,20.74
2023-05-25T23:42:45.934Z,20.78
2023-05-25T23:45:13.633Z,20.79
2023-05-25T23:47:40.753Z,20.72
2023-05-25T23:50:07.513Z,20.71
2023-05-25T23:52:34.165Z,20.70
2023-05-25T23:55:00.740Z,20.68
2023-05-25T23:57:27.335Z,20.66
2023-05-25T23:59:53.899Z,20.63
